sensor_id;sensor_type;location;lat;lon;timestamp;temperature;humidity
47226;DHT22;32965;64.142;-21.912;2022-07-21T00:00:43;12.10;98.20
47226;DHT22;32965;64.142;-21.912;2022-07-21T00:03:15;12.20;98.10
47226;DHT22;32965;64.142;-21.912;2022-07-21T00:06:11;12.20;98.10
47226;DHT22;32965;64.142;-21.912;2022-07-21T00:09:57;12.30;98.30
47226;DHT22;32965;64.142;-21.912;2022-07-21T00:13:17;12.30;98.50
47226;DHT22;32965;64.142;-21.912;2022-07-21T00:16:25;12.20;98.30
47226;DHT22;32965;64.142;-21.912;2022-07-21T00:19:02;12.10;98.30
47226;DHT22;32965;64.142;-21.912;2022-07-21T00:21:34;12.20;98.60
47226;DHT22;32965;64.142;-21.912;2022-07-21T00:24:10;12.20;98.40
47226;DHT22;32965;64.142;-21.912;2022-07-21T00:26:38;12.20;98.70
47226;DHT22;32965;64.142;-21.912;2022-07-21T00:29:46;12.20;98.60
47226;DHT22;32965;64.142;-21.912;2022-07-21T00:32:34;12.20;98.50
47226;DHT22;32965;64.142;-21.912;2022-07-21T00:35:11;12.00;98.60
47226;DHT22;32965;64.142;-21.912;2022-07-21T00:37:59;12.10;98.70
47226;DHT22;32965;64.142;-21.912;2022-07-21T00:41:08;12.10;98.70
47226;DHT22;32965;64.142;-21.912;2022-07-21T00:43:39;12.00;98.60
47226;DHT22;32965;64.142;-21.912;2022-07-21T00:46:31;12.00;98.60
47226;DHT22;32965;64.142;-21.912;2022-07-21T00:48:58;12.00;98.60
47226;DHT22;32965;64.142;-21.912;2022-07-21T00:51:47;12.00;98.60
47226;DHT22;32965;64.142;-21.912;2022-07-21T00:54:15;12.10;98.60
47226;DHT22;32965;64.142;-21.912;2022-07-21T00:56:49;12.00;98.30
47226;DHT22;32965;64.142;-21.912;2022-07-21T00:59:19;9.10;97.60
47226;DHT22;32965;64.142;-21.912;2022-07-21T01:01:56;12.00;98.30
47226;DHT22;32965;64.142;-21.912;2022-07-21T01:04:25;12.00;98.50
47226;DHT22;32965;64.142;-21.912;2022-07-21T01:06:55;11.90;98.50
47226;DHT22;32965;64.142;-21.912;2022-07-21T01:09:21;11.90;98.50
47226;DHT22;32965;64.142;-21.912;2022-07-21T01:11:50;11.90;98.30
47226;DHT22;32965;64.142;-21.912;2022-07-21T01:14:18;11.90;98.50
47226;DHT22;32965;64.142;-21.912;2022-07-21T01:16:53;11.80;98.50
47226;DHT22;32965;64.142;-21.912;2022-07-21T01:19:20;11.90;98.40
47226;DHT22;32965;64.142;-21.912;2022-07-21T01:21:49;11.90;98.30
47226;DHT22;32965;64.142;-21.912;2022-07-21T01:24:27;11.90;98.40
47226;DHT22;32965;64.142;-21.912;2022-07-21T01:27:01;11.90;98.40
47226;DHT22;32965;64.142;-21.912;2022-07-21T01:29:37;11.90;98.40
47226;DHT22;32965;64.142;-21.912;2022-07-21T01:32:11;11.90;98.30
47226;DHT22;32965;64.142;-21.912;2022-07-21T01:34:43;11.90;98.30
47226;DHT22;32965;64.142;-21.912;2022-07-21T01:37:14;11.90;98.30
47226;DHT22;32965;64.142;-21.912;2022-07-21T01:39:43;11.90;98.20
47226;DHT22;32965;64.142;-21.912;2022-07-21T01:42:30;11.90;98.30
47226;DHT22;32965;64.142;-21.912;2022-07-21T01:47:24;11.90;97.90
47226;DHT22;32965;64.142;-21.912;2022-07-21T01:49:51;11.90;98.10
47226;DHT22;32965;64.142;-21.912;2022-07-21T01:52:20;11.90;98.20
47226;DHT22;32965;64.142;-21.912;2022-07-21T01:54:48;11.80;98.10
47226;DHT22;32965;64.142;-21.912;2022-07-21T02:00:00;11.80;98.10
47226;DHT22;32965;64.142;-21.912;2022-07-21T02:02:26;11.80;98.20
47226;DHT22;32965;64.142;-21.912;2022-07-21T02:05:12;11.80;98.20
47226;DHT22;32965;64.142;-21.912;2022-07-21T02:07:41;11.90;98.00
47226;DHT22;32965;64.142;-21.912;2022-07-21T02:10:08;11.90;98.00
47226;DHT22;32965;64.142;-21.912;2022-07-21T02:12:39;11.90;98.20
47226;DHT22;32965;64.142;-21.912;2022-07-21T02:15:09;11.90;98.10
47226;DHT22;32965;64.142;-21.912;2022-07-21T02:17:38;11.90;98.10
47226;DHT22;32965;64.142;-21.912;2022-07-21T02:20:11;11.90;98.00
47226;DHT22;32965;64.142;-21.912;2022-07-21T02:22:37;11.90;98.00
47226;DHT22;32965;64.142;-21.912;2022-07-21T02:25:05;11.90;98.10
47226;DHT22;32965;64.142;-21.912;2022-07-21T02:27:33;11.90;98.00
47226;DHT22;32965;64.142;-21.912;2022-07-21T02:29:59;11.80;97.90
47226;DHT22;32965;64.142;-21.912;2022-07-21T02:32:27;11.80;98.10
47226;DHT22;32965;64.142;-21.912;2022-07-21T02:34:59;11.90;98.20
47226;DHT22;32965;64.142;-21.912;2022-07-21T02:37:36;11.90;98.10
47226;DHT22;32965;64.142;-21.912;2022-07-21T02:40:02;11.90;98.10
47226;DHT22;32965;64.142;-21.912;2022-07-21T02:42:29;11.90;98.10
47226;DHT22;32965;64.142;-21.912;2022-07-21T02:44:56;11.90;97.90
47226;DHT22;32965;64.142;-21.912;2022-07-21T02:47:24;11.90;98.00
47226;DHT22;32965;64.142;-21.912;2022-07-21T02:52:19;11.90;97.80
47226;DHT22;32965;64.142;-21.912;2022-07-21T02:54:45;11.80;97.80
47226;DHT22;32965;64.142;-21.912;2022-07-21T02:57:13;11.80;98.00
47226;DHT22;32965;64.142;-21.912;2022-07-21T02:59:38;11.80;97.80
47226;DHT22;32965;64.142;-21.912;2022-07-21T03:02:05;11.80;98.00
47226;DHT22;32965;64.142;-21.912;2022-07-21T03:04:37;11.80;97.90
47226;DHT22;32965;64.142;-21.912;2022-07-21T03:07:04;11.80;97.90
47226;DHT22;32965;64.142;-21.912;2022-07-21T03:09:31;11.80;97.90
47226;DHT22;32965;64.142;-21.912;2022-07-21T03:11:59;11.70;97.70
47226;DHT22;32965;64.142;-21.912;2022-07-21T03:14:29;11.80;97.90
47226;DHT22;32965;64.142;-21.912;2022-07-21T03:19:32;11.80;97.70
47226;DHT22;32965;64.142;-21.912;2022-07-21T03:21:58;11.90;97.90
47226;DHT22;32965;64.142;-21.912;2022-07-21T03:24:24;11.80;97.80
47226;DHT22;32965;64.142;-21.912;2022-07-21T03:26:50;11.80;97.60
47226;DHT22;32965;64.142;-21.912;2022-07-21T03:29:20;11.90;97.80
47226;DHT22;32965;64.142;-21.912;2022-07-21T03:31:48;11.80;97.70
47226;DHT22;32965;64.142;-21.912;2022-07-21T03:34:17;11.90;97.80
47226;DHT22;32965;64.142;-21.912;2022-07-21T03:36:44;11.80;98.00
47226;DHT22;32965;64.142;-21.912;2022-07-21T03:39:11;11.70;97.70
47226;DHT22;32965;64.142;-21.912;2022-07-21T03:41:46;11.70;97.80
47226;DHT22;32965;64.142;-21.912;2022-07-21T03:44:17;11.70;97.60
47226;DHT22;32965;64.142;-21.912;2022-07-21T03:46:45;11.70;97.70
47226;DHT22;32965;64.142;-21.912;2022-07-21T03:49:18;11.70;97.70
47226;DHT22;32965;64.142;-21.912;2022-07-21T03:51:51;11.80;97.60
47226;DHT22;32965;64.142;-21.912;2022-07-21T03:54:18;11.70;97.60
47226;DHT22;32965;64.142;-21.912;2022-07-21T03:57:04;11.70;97.60
47226;DHT22;32965;64.142;-21.912;2022-07-21T04:01:59;11.70;97.60
47226;DHT22;32965;64.142;-21.912;2022-07-21T04:04:27;11.70;97.60
47226;DHT22;32965;64.142;-21.912;2022-07-21T04:06:57;11.60;97.40
47226;DHT22;32965;64.142;-21.912;2022-07-21T04:09:22;11.70;97.50
47226;DHT22;32965;64.142;-21.912;2022-07-21T04:11:48;11.70;97.40
47226;DHT22;32965;64.142;-21.912;2022-07-21T04:14:14;11.70;97.50
47226;DHT22;32965;64.142;-21.912;2022-07-21T04:16:41;11.70;97.30
47226;DHT22;32965;64.142;-21.912;2022-07-21T04:19:08;11.70;97.50
47226;DHT22;32965;64.142;-21.912;2022-07-21T04:21:34;11.70;97.50
47226;DHT22;32965;64.142;-21.912;2022-07-21T04:24:00;11.70;97.40
47226;DHT22;32965;64.142;-21.912;2022-07-21T04:26:26;11.70;97.30
47226;DHT22;32965;64.142;-21.912;2022-07-21T04:28:53;11.70;97.30
47226;DHT22;32965;64.142;-21.912;2022-07-21T04:31:22;11.70;97.30
47226;DHT22;32965;64.142;-21.912;2022-07-21T04:36:18;11.70;97.30
47226;DHT22;32965;64.142;-21.912;2022-07-21T04:38:50;11.70;97.40
47226;DHT22;32965;64.142;-21.912;2022-07-21T04:41:19;11.60;97.40
47226;DHT22;32965;64.142;-21.912;2022-07-21T04:43:45;11.60;97.40
47226;DHT22;32965;64.142;-21.912;2022-07-21T04:46:10;11.70;97.50
47226;DHT22;32965;64.142;-21.912;2022-07-21T04:48:38;11.70;97.50
47226;DHT22;32965;64.142;-21.912;2022-07-21T04:51:08;11.70;97.50
47226;DHT22;32965;64.142;-21.912;2022-07-21T04:53:53;11.70;97.50
47226;DHT22;32965;64.142;-21.912;2022-07-21T04:56:19;11.70;97.30
47226;DHT22;32965;64.142;-21.912;2022-07-21T04:58:47;11.70;97.30
47226;DHT22;32965;64.142;-21.912;2022-07-21T05:01:23;11.80;97.50
47226;DHT22;32965;64.142;-21.912;2022-07-21T05:04:14;11.80;97.20
47226;DHT22;32965;64.142;-21.912;2022-07-21T05:06:43;11.80;97.20
47226;DHT22;32965;64.142;-21.912;2022-07-21T05:09:09;11.80;97.30
47226;DHT22;32965;64.142;-21.912;2022-07-21T05:11:36;11.80;97.40
47226;DHT22;32965;64.142;-21.912;2022-07-21T05:14:03;11.80;97.50
47226;DHT22;32965;64.142;-21.912;2022-07-21T05:16:29;11.80;97.60
47226;DHT22;32965;64.142;-21.912;2022-07-21T05:18:54;11.70;97.40
47226;DHT22;32965;64.142;-21.912;2022-07-21T05:21:20;11.80;97.70
47226;DHT22;32965;64.142;-21.912;2022-07-21T05:23:47;11.70;97.60
47226;DHT22;32965;64.142;-21.912;2022-07-21T05:26:17;11.70;97.70
47226;DHT22;32965;64.142;-21.912;2022-07-21T05:28:43;11.70;97.70
47226;DHT22;32965;64.142;-21.912;2022-07-21T05:31:09;11.70;97.90
47226;DHT22;32965;64.142;-21.912;2022-07-21T05:33:55;11.70;98.00
47226;DHT22;32965;64.142;-21.912;2022-07-21T05:36:21;11.80;97.90
47226;DHT22;32965;64.142;-21.912;2022-07-21T05:38:50;11.70;97.90
47226;DHT22;32965;64.142;-21.912;2022-07-21T05:41:18;11.80;98.10
47226;DHT22;32965;64.142;-21.912;2022-07-21T05:44:07;11.70;97.90
47226;DHT22;32965;64.142;-21.912;2022-07-21T05:49:06;11.70;97.90
47226;DHT22;32965;64.142;-21.912;2022-07-21T05:54:04;11.90;98.10
47226;DHT22;32965;64.142;-21.912;2022-07-21T05:56:30;11.80;98.10
47226;DHT22;32965;64.142;-21.912;2022-07-21T05:58:57;11.80;98.20
47226;DHT22;32965;64.142;-21.912;2022-07-21T06:01:24;11.90;98.10
47226;DHT22;32965;64.142;-21.912;2022-07-21T06:03:50;11.80;97.90
47226;DHT22;32965;64.142;-21.912;2022-07-21T06:06:18;11.80;98.10
47226;DHT22;32965;64.142;-21.912;2022-07-21T06:08:47;11.70;98.00
47226;DHT22;32965;64.142;-21.912;2022-07-21T06:11:19;11.70;98.20
47226;DHT22;32965;64.142;-21.912;2022-07-21T06:13:48;11.70;98.10
47226;DHT22;32965;64.142;-21.912;2022-07-21T06:16:15;11.70;98.20
47226;DHT22;32965;64.142;-21.912;2022-07-21T06:18:46;11.80;98.10
47226;DHT22;32965;64.142;-21.912;2022-07-21T06:21:50;11.80;98.30
47226;DHT22;32965;64.142;-21.912;2022-07-21T06:24:16;12.00;98.20
47226;DHT22;32965;64.142;-21.912;2022-07-21T06:26:51;11.80;98.30
47226;DHT22;32965;64.142;-21.912;2022-07-21T06:29:25;11.80;98.20
47226;DHT22;32965;64.142;-21.912;2022-07-21T06:31:51;11.80;98.10
47226;DHT22;32965;64.142;-21.912;2022-07-21T06:34:21;11.80;98.20
47226;DHT22;32965;64.142;-21.912;2022-07-21T06:37:06;11.80;98.10
47226;DHT22;32965;64.142;-21.912;2022-07-21T06:39:47;11.90;98.20
47226;DHT22;32965;64.142;-21.912;2022-07-21T06:42:25;11.90;98.30
47226;DHT22;32965;64.142;-21.912;2022-07-21T06:44:51;12.00;98.20
47226;DHT22;32965;64.142;-21.912;2022-07-21T06:47:25;11.90;98.20
47226;DHT22;32965;64.142;-21.912;2022-07-21T06:49:56;12.10;98.00
47226;DHT22;32965;64.142;-21.912;2022-07-21T06:54:55;12.10;97.90
47226;DHT22;32965;64.142;-21.912;2022-07-21T06:57:27;12.20;98.00
47226;DHT22;32965;64.142;-21.912;2022-07-21T06:59:56;12.20;97.90
47226;DHT22;32965;64.142;-21.912;2022-07-21T07:02:26;12.20;97.70
47226;DHT22;32965;64.142;-21.912;2022-07-21T07:04:52;12.20;97.80
47226;DHT22;32965;64.142;-21.912;2022-07-21T07:07:17;12.10;97.90
47226;DHT22;32965;64.142;-21.912;2022-07-21T07:09:43;12.20;97.90
47226;DHT22;32965;64.142;-21.912;2022-07-21T07:12:11;12.10;97.90
47226;DHT22;32965;64.142;-21.912;2022-07-21T07:14:38;12.00;97.60
47226;DHT22;32965;64.142;-21.912;2022-07-21T07:17:08;12.00;97.80
47226;DHT22;32965;64.142;-21.912;2022-07-21T07:19:59;12.00;97.90
47226;DHT22;32965;64.142;-21.912;2022-07-21T07:22:48;12.00;97.90
47226;DHT22;32965;64.142;-21.912;2022-07-21T07:25:15;12.00;98.00
47226;DHT22;32965;64.142;-21.912;2022-07-21T07:27:45;12.00;98.10
47226;DHT22;32965;64.142;-21.912;2022-07-21T07:30:12;12.00;98.10
47226;DHT22;32965;64.142;-21.912;2022-07-21T07:32:38;12.00;98.00
47226;DHT22;32965;64.142;-21.912;2022-07-21T07:35:06;12.00;98.00
47226;DHT22;32965;64.142;-21.912;2022-07-21T07:37:37;12.10;97.80
47226;DHT22;32965;64.142;-21.912;2022-07-21T07:40:11;12.10;98.00
47226;DHT22;32965;64.142;-21.912;2022-07-21T07:42:46;12.00;97.80
47226;DHT22;32965;64.142;-21.912;2022-07-21T07:45:12;12.10;97.90
47226;DHT22;32965;64.142;-21.912;2022-07-21T07:47:41;12.00;97.90
47226;DHT22;32965;64.142;-21.912;2022-07-21T07:50:11;12.00;97.90
47226;DHT22;32965;64.142;-21.912;2022-07-21T07:53:04;11.90;97.80
47226;DHT22;32965;64.142;-21.912;2022-07-21T07:56:17;11.80;97.80
47226;DHT22;32965;64.142;-21.912;2022-07-21T07:59:07;11.90;97.80
47226;DHT22;32965;64.142;-21.912;2022-07-21T08:01:37;11.90;98.00
47226;DHT22;32965;64.142;-21.912;2022-07-21T08:04:08;12.00;98.00
47226;DHT22;32965;64.142;-21.912;2022-07-21T08:06:36;12.10;97.90
47226;DHT22;32965;64.142;-21.912;2022-07-21T08:09:02;12.20;97.80
47226;DHT22;32965;64.142;-21.912;2022-07-21T08:11:28;12.20;97.60
47226;DHT22;32965;64.142;-21.912;2022-07-21T08:13:54;12.30;97.60
47226;DHT22;32965;64.142;-21.912;2022-07-21T08:16:42;12.30;97.50
47226;DHT22;32965;64.142;-21.912;2022-07-21T08:19:08;12.40;97.40
47226;DHT22;32965;64.142;-21.912;2022-07-21T08:21:40;12.40;97.30
47226;DHT22;32965;64.142;-21.912;2022-07-21T08:24:06;12.50;97.20
47226;DHT22;32965;64.142;-21.912;2022-07-21T08:26:35;12.50;97.20
47226;DHT22;32965;64.142;-21.912;2022-07-21T08:29:03;12.50;97.10
47226;DHT22;32965;64.142;-21.912;2022-07-21T08:31:30;12.50;97.10
47226;DHT22;32965;64.142;-21.912;2022-07-21T08:33:57;12.40;97.20
47226;DHT22;32965;64.142;-21.912;2022-07-21T08:36:23;12.40;97.20
47226;DHT22;32965;64.142;-21.912;2022-07-21T08:38:49;12.40;96.90
47226;DHT22;32965;64.142;-21.912;2022-07-21T08:41:15;12.50;96.80
47226;DHT22;32965;64.142;-21.912;2022-07-21T08:43:41;12.50;96.60
47226;DHT22;32965;64.142;-21.912;2022-07-21T08:46:08;12.60;96.40
47226;DHT22;32965;64.142;-21.912;2022-07-21T08:48:36;12.70;96.20
47226;DHT22;32965;64.142;-21.912;2022-07-21T08:51:03;12.80;96.00
47226;DHT22;32965;64.142;-21.912;2022-07-21T08:53:28;12.90;95.70
47226;DHT22;32965;64.142;-21.912;2022-07-21T08:55:54;13.00;95.40
47226;DHT22;32965;64.142;-21.912;2022-07-21T08:58:27;13.00;94.90
47226;DHT22;32965;64.142;-21.912;2022-07-21T09:00:55;13.20;94.80
47226;DHT22;32965;64.142;-21.912;2022-07-21T09:03:24;13.30;94.30
47226;DHT22;32965;64.142;-21.912;2022-07-21T09:06:13;13.40;93.90
47226;DHT22;32965;64.142;-21.912;2022-07-21T09:08:44;13.60;93.40
47226;DHT22;32965;64.142;-21.912;2022-07-21T09:13:40;13.80;92.80
47226;DHT22;32965;64.142;-21.912;2022-07-21T09:16:06;14.00;92.30
47226;DHT22;32965;64.142;-21.912;2022-07-21T09:18:33;14.00;91.80
47226;DHT22;32965;64.142;-21.912;2022-07-21T09:21:00;13.90;91.50
47226;DHT22;32965;64.142;-21.912;2022-07-21T09:23:27;14.00;91.60
47226;DHT22;32965;64.142;-21.912;2022-07-21T09:25:55;14.10;91.60
47226;DHT22;32965;64.142;-21.912;2022-07-21T09:28:27;14.30;91.30
47226;DHT22;32965;64.142;-21.912;2022-07-21T09:31:11;14.40;90.70
47226;DHT22;32965;64.142;-21.912;2022-07-21T09:33:45;14.50;90.40
47226;DHT22;32965;64.142;-21.912;2022-07-21T09:38:51;14.60;90.00
47226;DHT22;32965;64.142;-21.912;2022-07-21T09:41:19;14.70;89.60
47226;DHT22;32965;64.142;-21.912;2022-07-21T09:43:56;14.80;88.80
47226;DHT22;32965;64.142;-21.912;2022-07-21T09:46:28;14.80;88.20
47226;DHT22;32965;64.142;-21.912;2022-07-21T09:49:06;14.90;87.50
47226;DHT22;32965;64.142;-21.912;2022-07-21T09:51:37;15.10;86.70
47226;DHT22;32965;64.142;-21.912;2022-07-21T09:54:09;15.10;85.60
47226;DHT22;32965;64.142;-21.912;2022-07-21T09:56:43;15.20;84.30
47226;DHT22;32965;64.142;-21.912;2022-07-21T09:59:10;15.30;82.90
47226;DHT22;32965;64.142;-21.912;2022-07-21T10:01:37;15.40;81.90
47226;DHT22;32965;64.142;-21.912;2022-07-21T10:04:06;15.40;80.90
47226;DHT22;32965;64.142;-21.912;2022-07-21T10:06:36;15.50;80.10
47226;DHT22;32965;64.142;-21.912;2022-07-21T10:09:06;15.40;79.80
47226;DHT22;32965;64.142;-21.912;2022-07-21T10:11:32;15.50;79.60
47226;DHT22;32965;64.142;-21.912;2022-07-21T10:13:58;15.40;79.90
47226;DHT22;32965;64.142;-21.912;2022-07-21T10:16:24;15.30;79.60
47226;DHT22;32965;64.142;-21.912;2022-07-21T10:19:18;15.50;79.10
47226;DHT22;32965;64.142;-21.912;2022-07-21T10:24:28;15.80;77.30
47226;DHT22;32965;64.142;-21.912;2022-07-21T10:27:07;15.80;76.90
47226;DHT22;32965;64.142;-21.912;2022-07-21T10:29:50;15.90;76.40
47226;DHT22;32965;64.142;-21.912;2022-07-21T10:32:25;15.70;76.70
47226;DHT22;32965;64.142;-21.912;2022-07-21T10:34:55;15.70;77.00
47226;DHT22;32965;64.142;-21.912;2022-07-21T10:45:32;15.90;77.30
47226;DHT22;32965;64.142;-21.912;2022-07-21T10:47:59;16.00;77.10
47226;DHT22;32965;64.142;-21.912;2022-07-21T10:50:41;16.10;77.30
47226;DHT22;32965;64.142;-21.912;2022-07-21T10:53:16;16.20;77.50
47226;DHT22;32965;64.142;-21.912;2022-07-21T10:55:54;16.30;77.30
47226;DHT22;32965;64.142;-21.912;2022-07-21T10:58:40;16.40;76.80
47226;DHT22;32965;64.142;-21.912;2022-07-21T11:03:45;16.30;77.20
47226;DHT22;32965;64.142;-21.912;2022-07-21T11:06:24;16.30;77.30
47226;DHT22;32965;64.142;-21.912;2022-07-21T11:11:29;16.50;77.30
47226;DHT22;32965;64.142;-21.912;2022-07-21T11:14:11;16.50;77.40
47226;DHT22;32965;64.142;-21.912;2022-07-21T11:19:46;16.60;77.10
47226;DHT22;32965;64.142;-21.912;2022-07-21T11:24:52;16.50;77.30
47226;DHT22;32965;64.142;-21.912;2022-07-21T11:27:22;16.50;77.10
47226;DHT22;32965;64.142;-21.912;2022-07-21T11:29:56;16.60;77.00
47226;DHT22;32965;64.142;-21.912;2022-07-21T11:32:23;16.60;76.80
47226;DHT22;32965;64.142;-21.912;2022-07-21T11:35:00;16.60;76.90
47226;DHT22;32965;64.142;-21.912;2022-07-21T11:37:31;16.70;77.40
47226;DHT22;32965;64.142;-21.912;2022-07-21T11:39:58;16.60;77.70
47226;DHT22;32965;64.142;-21.912;2022-07-21T11:42:26;16.50;78.00
47226;DHT22;32965;64.142;-21.912;2022-07-21T11:44:52;16.40;78.70
47226;DHT22;32965;64.142;-21.912;2022-07-21T11:47:28;16.30;79.40
47226;DHT22;32965;64.142;-21.912;2022-07-21T11:49:56;16.20;79.70
47226;DHT22;32965;64.142;-21.912;2022-07-21T11:52:27;16.10;80.80
47226;DHT22;32965;64.142;-21.912;2022-07-21T11:54:55;16.10;81.70
47226;DHT22;32965;64.142;-21.912;2022-07-21T11:57:22;16.00;82.50
47226;DHT22;32965;64.142;-21.912;2022-07-21T11:59:49;16.10;83.10
47226;DHT22;32965;64.142;-21.912;2022-07-21T12:04:53;16.00;83.00
47226;DHT22;32965;64.142;-21.912;2022-07-21T12:07:27;16.10;83.10
47226;DHT22;32965;64.142;-21.912;2022-07-21T12:09:59;16.20;83.00
47226;DHT22;32965;64.142;-21.912;2022-07-21T12:14:58;16.20;81.90
47226;DHT22;32965;64.142;-21.912;2022-07-21T12:17:38;16.10;82.00
47226;DHT22;32965;64.142;-21.912;2022-07-21T12:20:05;16.30;81.90
47226;DHT22;32965;64.142;-21.912;2022-07-21T12:22:43;16.20;81.70
47226;DHT22;32965;64.142;-21.912;2022-07-21T12:25:13;16.30;82.00
47226;DHT22;32965;64.142;-21.912;2022-07-21T12:27:41;16.30;82.10
47226;DHT22;32965;64.142;-21.912;2022-07-21T12:30:09;16.50;81.90
47226;DHT22;32965;64.142;-21.912;2022-07-21T12:32:47;16.60;81.70
47226;DHT22;32965;64.142;-21.912;2022-07-21T12:35:26;16.60;81.40
47226;DHT22;32965;64.142;-21.912;2022-07-21T12:38:06;16.80;81.00
47226;DHT22;32965;64.142;-21.912;2022-07-21T12:40:34;16.70;81.00
47226;DHT22;32965;64.142;-21.912;2022-07-21T12:43:20;16.90;80.60
47226;DHT22;32965;64.142;-21.912;2022-07-21T12:48:19;16.90;78.40
47226;DHT22;32965;64.142;-21.912;2022-07-21T12:51:21;17.00;78.70
47226;DHT22;32965;64.142;-21.912;2022-07-21T12:53:50;16.80;78.80
47226;DHT22;32965;64.142;-21.912;2022-07-21T12:56:27;16.70;79.30
47226;DHT22;32965;64.142;-21.912;2022-07-21T12:58:56;16.60;79.60
47226;DHT22;32965;64.142;-21.912;2022-07-21T13:01:23;16.50;79.90
47226;DHT22;32965;64.142;-21.912;2022-07-21T13:03:50;16.50;80.00
47226;DHT22;32965;64.142;-21.912;2022-07-21T13:06:16;16.30;80.10
47226;DHT22;32965;64.142;-21.912;2022-07-21T13:08:46;16.10;81.00
47226;DHT22;32965;64.142;-21.912;2022-07-21T13:11:16;16.00;81.80
47226;DHT22;32965;64.142;-21.912;2022-07-21T13:13:44;16.00;82.40
47226;DHT22;32965;64.142;-21.912;2022-07-21T13:16:11;16.00;82.80
47226;DHT22;32965;64.142;-21.912;2022-07-21T13:18:36;16.00;82.10
47226;DHT22;32965;64.142;-21.912;2022-07-21T13:21:03;15.90;82.80
47226;DHT22;32965;64.142;-21.912;2022-07-21T13:23:29;15.90;83.10
47226;DHT22;32965;64.142;-21.912;2022-07-21T13:25:54;16.00;83.00
47226;DHT22;32965;64.142;-21.912;2022-07-21T13:28:20;16.00;83.00
47226;DHT22;32965;64.142;-21.912;2022-07-21T13:30:46;15.90;83.10
47226;DHT22;32965;64.142;-21.912;2022-07-21T13:33:15;15.90;83.60
47226;DHT22;32965;64.142;-21.912;2022-07-21T13:35:41;15.90;84.10
47226;DHT22;32965;64.142;-21.912;2022-07-21T13:38:07;15.80;84.20
47226;DHT22;32965;64.142;-21.912;2022-07-21T13:40:33;15.80;84.60
47226;DHT22;32965;64.142;-21.912;2022-07-21T13:42:59;15.80;85.20
47226;DHT22;32965;64.142;-21.912;2022-07-21T13:45:25;15.90;85.90
47226;DHT22;32965;64.142;-21.912;2022-07-21T13:47:51;16.00;86.10
47226;DHT22;32965;64.142;-21.912;2022-07-21T13:50:17;16.00;86.80
47226;DHT22;32965;64.142;-21.912;2022-07-21T13:52:43;16.10;87.70
47226;DHT22;32965;64.142;-21.912;2022-07-21T13:55:10;16.20;87.60
47226;DHT22;32965;64.142;-21.912;2022-07-21T13:57:36;16.20;87.50
47226;DHT22;32965;64.142;-21.912;2022-07-21T14:00:07;16.30;87.50
47226;DHT22;32965;64.142;-21.912;2022-07-21T14:02:34;16.40;87.40
47226;DHT22;32965;64.142;-21.912;2022-07-21T14:05:02;16.40;86.80
47226;DHT22;32965;64.142;-21.912;2022-07-21T14:07:29;16.30;87.00
47226;DHT22;32965;64.142;-21.912;2022-07-21T14:09:55;16.30;87.10
47226;DHT22;32965;64.142;-21.912;2022-07-21T14:12:20;16.30;86.60
47226;DHT22;32965;64.142;-21.912;2022-07-21T14:14:46;16.30;86.20
47226;DHT22;32965;64.142;-21.912;2022-07-21T14:17:16;16.30;85.90
47226;DHT22;32965;64.142;-21.912;2022-07-21T14:19:43;16.30;86.50
47226;DHT22;32965;64.142;-21.912;2022-07-21T14:22:13;16.00;87.20
47226;DHT22;32965;64.142;-21.912;2022-07-21T14:24:38;15.60;88.80
47226;DHT22;32965;64.142;-21.912;2022-07-21T14:27:23;15.30;90.40
47226;DHT22;32965;64.142;-21.912;2022-07-21T14:29:49;15.10;91.10
47226;DHT22;32965;64.142;-21.912;2022-07-21T14:32:17;15.00;91.50
47226;DHT22;32965;64.142;-21.912;2022-07-21T14:34:48;14.80;91.80
47226;DHT22;32965;64.142;-21.912;2022-07-21T14:37:14;14.80;92.10
47226;DHT22;32965;64.142;-21.912;2022-07-21T14:39:40;14.90;92.20
47226;DHT22;32965;64.142;-21.912;2022-07-21T14:42:06;15.00;92.30
47226;DHT22;32965;64.142;-21.912;2022-07-21T14:44:32;15.00;92.30
47226;DHT22;32965;64.142;-21.912;2022-07-21T14:46:59;15.10;92.30
47226;DHT22;32965;64.142;-21.912;2022-07-21T14:49:24;15.30;92.30
47226;DHT22;32965;64.142;-21.912;2022-07-21T14:51:50;15.70;91.70
47226;DHT22;32965;64.142;-21.912;2022-07-21T14:54:16;15.80;91.90
47226;DHT22;32965;64.142;-21.912;2022-07-21T14:56:42;15.80;92.00
47226;DHT22;32965;64.142;-21.912;2022-07-21T14:59:08;15.70;92.40
47226;DHT22;32965;64.142;-21.912;2022-07-21T15:01:34;15.60;93.00
47226;DHT22;32965;64.142;-21.912;2022-07-21T15:03:59;15.50;93.50
47226;DHT22;32965;64.142;-21.912;2022-07-21T15:06:25;15.40;94.10
47226;DHT22;32965;64.142;-21.912;2022-07-21T15:08:51;15.30;94.40
47226;DHT22;32965;64.142;-21.912;2022-07-21T15:11:17;15.50;94.80
47226;DHT22;32965;64.142;-21.912;2022-07-21T15:13:43;15.40;94.30
47226;DHT22;32965;64.142;-21.912;2022-07-21T15:16:09;15.30;94.50
47226;DHT22;32965;64.142;-21.912;2022-07-21T15:18:34;15.10;94.90
47226;DHT22;32965;64.142;-21.912;2022-07-21T15:21:00;14.90;95.30
47226;DHT22;32965;64.142;-21.912;2022-07-21T15:23:26;14.90;95.40
47226;DHT22;32965;64.142;-21.912;2022-07-21T15:25:52;14.90;95.50
47226;DHT22;32965;64.142;-21.912;2022-07-21T15:28:18;14.90;95.50
47226;DHT22;32965;64.142;-21.912;2022-07-21T15:30:43;15.00;95.70
47226;DHT22;32965;64.142;-21.912;2022-07-21T15:33:10;15.00;95.70
47226;DHT22;32965;64.142;-21.912;2022-07-21T15:35:36;15.10;95.70
47226;DHT22;32965;64.142;-21.912;2022-07-21T15:38:01;15.30;95.70
47226;DHT22;32965;64.142;-21.912;2022-07-21T15:40:27;15.40;95.70
47226;DHT22;32965;64.142;-21.912;2022-07-21T15:42:53;15.50;95.40
47226;DHT22;32965;64.142;-21.912;2022-07-21T15:45:19;15.50;95.30
47226;DHT22;32965;64.142;-21.912;2022-07-21T15:47:45;15.50;95.00
47226;DHT22;32965;64.142;-21.912;2022-07-21T15:50:11;15.40;95.00
47226;DHT22;32965;64.142;-21.912;2022-07-21T15:52:36;15.30;95.10
47226;DHT22;32965;64.142;-21.912;2022-07-21T15:55:04;15.20;95.30
47226;DHT22;32965;64.142;-21.912;2022-07-21T15:57:31;15.20;95.60
47226;DHT22;32965;64.142;-21.912;2022-07-21T15:59:57;15.30;95.80
47226;DHT22;32965;64.142;-21.912;2022-07-21T16:02:24;15.30;95.80
47226;DHT22;32965;64.142;-21.912;2022-07-21T16:04:50;15.30;95.90
47226;DHT22;32965;64.142;-21.912;2022-07-21T16:07:16;15.10;95.90
47226;DHT22;32965;64.142;-21.912;2022-07-21T16:09:42;15.10;96.10
47226;DHT22;32965;64.142;-21.912;2022-07-21T16:12:10;15.00;96.50
47226;DHT22;32965;64.142;-21.912;2022-07-21T16:14:36;15.00;96.30
47226;DHT22;32965;64.142;-21.912;2022-07-21T16:17:03;14.80;96.60
47226;DHT22;32965;64.142;-21.912;2022-07-21T16:19:29;14.70;97.30
47226;DHT22;32965;64.142;-21.912;2022-07-21T16:21:56;14.50;97.80